Terminal Aerodrome Forecast
Issued by NWS Northern Indiana

Home | Current Version | Previous Version | Graphics & Text | Print | Product List | Glossary On
Versions: 1 2 3 4 5 6 7 8 9 10 11 12 13 14 15 16 17 18
000
FTUS43 KIWX 220527
TAFFWA
TAF
KFWA 220527Z 2206/2306 22006KT P6SM SCT150 BKN250
     FM220800 22005KT 6SM -SHRA VCTS SCT060CB OVC250
     FM221100 24005KT 6SM HZ SCT080 BKN150
     FM221800 25008KT P6SM VCTS BKN040CB
     FM230300 25004KT 6SM HZ BKN100=

USA.gov is the U.S. government's official web portal to all federal, state and local government web resources and services.